sensor_id;sensor_type;location;lat;lon;timestamp;temperature;humidity
21167;DHT22;10741;52.272;9.580;2022-09-09T00:01:23;14.00;99.90
21167;DHT22;10741;52.272;9.580;2022-09-09T00:04:21;14.00;99.90
21167;DHT22;10741;52.272;9.580;2022-09-09T00:09:30;14.10;99.90
21167;DHT22;10741;52.272;9.580;2022-09-09T00:15:13;14.10;99.90
21167;DHT22;10741;52.272;9.580;2022-09-09T00:17:47;14.10;99.90
21167;DHT22;10741;52.272;9.580;2022-09-09T00:23:10;14.20;99.90
21167;DHT22;10741;52.272;9.580;2022-09-09T00:28:19;14.20;99.90
21167;DHT22;10741;52.272;9.580;2022-09-09T00:30:46;14.20;99.90
21167;DHT22;10741;52.272;9.580;2022-09-09T00:33:17;14.10;99.90
21167;DHT22;10741;52.272;9.580;2022-09-09T00:35:48;14.10;99.90
21167;DHT22;10741;52.272;9.580;2022-09-09T00:38:24;14.10;99.90
21167;DHT22;10741;52.272;9.580;2022-09-09T00:41:27;14.10;99.90
21167;DHT22;10741;52.272;9.580;2022-09-09T00:44:02;14.10;99.90
21167;DHT22;10741;52.272;9.580;2022-09-09T00:57:54;13.70;99.90
21167;DHT22;10741;52.272;9.580;2022-09-09T01:00:25;13.70;99.90
21167;DHT22;10741;52.272;9.580;2022-09-09T01:16:59;13.50;99.90
21167;DHT22;10741;52.272;9.580;2022-09-09T01:27:35;13.50;99.90
21167;DHT22;10741;52.272;9.580;2022-09-09T01:30:01;13.50;99.90
21167;DHT22;10741;52.272;9.580;2022-09-09T01:37:45;13.40;99.90
21167;DHT22;10741;52.272;9.580;2022-09-09T01:40:10;13.30;99.90
21167;DHT22;10741;52.272;9.580;2022-09-09T01:42:36;13.40;99.90
21167;DHT22;10741;52.272;9.580;2022-09-09T01:45:02;13.30;99.90
21167;DHT22;10741;52.272;9.580;2022-09-09T01:47:29;13.30;99.90
21167;DHT22;10741;52.272;9.580;2022-09-09T01:49:54;13.30;99.90
21167;DHT22;10741;52.272;9.580;2022-09-09T01:52:20;13.30;99.90
21167;DHT22;10741;52.272;9.580;2022-09-09T01:54:46;13.30;99.90
21167;DHT22;10741;52.272;9.580;2022-09-09T01:57:18;13.40;99.90
21167;DHT22;10741;52.272;9.580;2022-09-09T02:00:02;13.40;99.90
21167;DHT22;10741;52.272;9.580;2022-09-09T02:05:18;13.40;99.90
21167;DHT22;10741;52.272;9.580;2022-09-09T02:07:50;13.40;99.90
21167;DHT22;10741;52.272;9.580;2022-09-09T02:10:27;13.50;99.90
21167;DHT22;10741;52.272;9.580;2022-09-09T02:13:15;13.50;99.90
21167;DHT22;10741;52.272;9.580;2022-09-09T02:18:49;13.60;99.90
21167;DHT22;10741;52.272;9.580;2022-09-09T02:21:17;13.60;99.90
21167;DHT22;10741;52.272;9.580;2022-09-09T02:23:45;13.70;99.90
21167;DHT22;10741;52.272;9.580;2022-09-09T02:26:13;13.70;99.90
21167;DHT22;10741;52.272;9.580;2022-09-09T02:28:46;13.70;99.90
21167;DHT22;10741;52.272;9.580;2022-09-09T02:31:16;13.70;99.90
21167;DHT22;10741;52.272;9.580;2022-09-09T02:33:49;13.80;99.90
21167;DHT22;10741;52.272;9.580;2022-09-09T02:36:17;13.80;99.90
21167;DHT22;10741;52.272;9.580;2022-09-09T02:38:46;13.90;99.90
21167;DHT22;10741;52.272;9.580;2022-09-09T02:41:29;13.90;99.90
21167;DHT22;10741;52.272;9.580;2022-09-09T02:43:56;14.00;99.90
21167;DHT22;10741;52.272;9.580;2022-09-09T02:49:11;14.00;99.90
21167;DHT22;10741;52.272;9.580;2022-09-09T02:56:48;14.10;99.90
21167;DHT22;10741;52.272;9.580;2022-09-09T02:59:16;14.20;99.90
21167;DHT22;10741;52.272;9.580;2022-09-09T03:01:42;14.20;99.90
21167;DHT22;10741;52.272;9.580;2022-09-09T03:04:09;14.20;99.90
21167;DHT22;10741;52.272;9.580;2022-09-09T03:06:35;14.20;99.90
21167;DHT22;10741;52.272;9.580;2022-09-09T03:09:01;14.30;99.90
21167;DHT22;10741;52.272;9.580;2022-09-09T03:11:28;14.30;99.90
21167;DHT22;10741;52.272;9.580;2022-09-09T03:13:54;14.30;99.90
21167;DHT22;10741;52.272;9.580;2022-09-09T03:16:22;14.30;99.90
21167;DHT22;10741;52.272;9.580;2022-09-09T03:18:48;14.40;99.90
21167;DHT22;10741;52.272;9.580;2022-09-09T03:21:14;14.40;99.90
21167;DHT22;10741;52.272;9.580;2022-09-09T03:23:40;14.30;99.90
21167;DHT22;10741;52.272;9.580;2022-09-09T03:26:06;14.40;99.90
21167;DHT22;10741;52.272;9.580;2022-09-09T03:28:32;14.40;99.90
21167;DHT22;10741;52.272;9.580;2022-09-09T03:31:05;14.40;99.90
21167;DHT22;10741;52.272;9.580;2022-09-09T03:33:31;14.40;99.90
21167;DHT22;10741;52.272;9.580;2022-09-09T03:35:57;14.50;99.90
21167;DHT22;10741;52.272;9.580;2022-09-09T03:38:24;14.50;99.90
21167;DHT22;10741;52.272;9.580;2022-09-09T03:40:54;14.50;99.90
21167;DHT22;10741;52.272;9.580;2022-09-09T03:43:21;14.60;99.90
21167;DHT22;10741;52.272;9.580;2022-09-09T03:45:48;14.50;99.90
21167;DHT22;10741;52.272;9.580;2022-09-09T03:48:14;14.60;99.90
21167;DHT22;10741;52.272;9.580;2022-09-09T03:50:48;14.60;99.90
21167;DHT22;10741;52.272;9.580;2022-09-09T03:53:15;14.60;99.90
21167;DHT22;10741;52.272;9.580;2022-09-09T03:55:49;14.70;99.90
21167;DHT22;10741;52.272;9.580;2022-09-09T03:58:16;14.70;99.90
21167;DHT22;10741;52.272;9.580;2022-09-09T04:00:55;14.70;99.90
21167;DHT22;10741;52.272;9.580;2022-09-09T04:03:21;14.80;99.90
21167;DHT22;10741;52.272;9.580;2022-09-09T04:05:50;14.80;99.90
21167;DHT22;10741;52.272;9.580;2022-09-09T04:08:17;14.80;99.90
21167;DHT22;10741;52.272;9.580;2022-09-09T04:10:45;14.80;99.90
21167;DHT22;10741;52.272;9.580;2022-09-09T04:13:13;14.80;99.90
21167;DHT22;10741;52.272;9.580;2022-09-09T04:15:39;14.90;99.90
21167;DHT22;10741;52.272;9.580;2022-09-09T04:18:05;15.00;99.90
21167;DHT22;10741;52.272;9.580;2022-09-09T04:20:31;15.00;99.90
21167;DHT22;10741;52.272;9.580;2022-09-09T04:22:59;15.00;99.90
21167;DHT22;10741;52.272;9.580;2022-09-09T04:25:25;15.10;99.90
21167;DHT22;10741;52.272;9.580;2022-09-09T04:27:54;15.10;99.90
21167;DHT22;10741;52.272;9.580;2022-09-09T04:30:20;15.10;99.90
21167;DHT22;10741;52.272;9.580;2022-09-09T04:32:46;15.10;99.90
21167;DHT22;10741;52.272;9.580;2022-09-09T04:35:12;15.20;99.90
21167;DHT22;10741;52.272;9.580;2022-09-09T04:37:38;15.10;99.90
21167;DHT22;10741;52.272;9.580;2022-09-09T04:40:04;15.20;99.90
21167;DHT22;10741;52.272;9.580;2022-09-09T04:42:34;15.20;99.90
21167;DHT22;10741;52.272;9.580;2022-09-09T04:45:00;15.20;99.90
21167;DHT22;10741;52.272;9.580;2022-09-09T04:47:27;15.20;99.90
21167;DHT22;10741;52.272;9.580;2022-09-09T04:49:52;15.20;99.90
21167;DHT22;10741;52.272;9.580;2022-09-09T04:52:20;15.20;99.90
21167;DHT22;10741;52.272;9.580;2022-09-09T04:54:46;15.20;99.90
21167;DHT22;10741;52.272;9.580;2022-09-09T04:57:12;15.10;99.90
21167;DHT22;10741;52.272;9.580;2022-09-09T04:59:38;15.20;99.90
21167;DHT22;10741;52.272;9.580;2022-09-09T05:02:05;15.20;99.90
21167;DHT22;10741;52.272;9.580;2022-09-09T05:04:31;15.20;99.90
21167;DHT22;10741;52.272;9.580;2022-09-09T05:06:58;15.20;99.90
21167;DHT22;10741;52.272;9.580;2022-09-09T05:09:24;15.20;99.90
21167;DHT22;10741;52.272;9.580;2022-09-09T05:11:50;15.20;99.90
21167;DHT22;10741;52.272;9.580;2022-09-09T05:14:17;15.20;99.90
21167;DHT22;10741;52.272;9.580;2022-09-09T05:16:44;15.30;99.90
21167;DHT22;10741;52.272;9.580;2022-09-09T05:19:10;15.30;99.90
21167;DHT22;10741;52.272;9.580;2022-09-09T05:21:37;15.30;99.90
21167;DHT22;10741;52.272;9.580;2022-09-09T05:24:02;15.30;99.90
21167;DHT22;10741;52.272;9.580;2022-09-09T05:26:28;15.30;99.90
21167;DHT22;10741;52.272;9.580;2022-09-09T05:28:55;15.30;99.90
21167;DHT22;10741;52.272;9.580;2022-09-09T05:31:21;15.40;99.90
21167;DHT22;10741;52.272;9.580;2022-09-09T05:33:47;15.40;99.90
21167;DHT22;10741;52.272;9.580;2022-09-09T05:36:19;15.40;99.90
21167;DHT22;10741;52.272;9.580;2022-09-09T05:38:45;15.40;99.90
21167;DHT22;10741;52.272;9.580;2022-09-09T05:41:15;15.50;99.90
21167;DHT22;10741;52.272;9.580;2022-09-09T05:43:42;15.50;99.90
21167;DHT22;10741;52.272;9.580;2022-09-09T05:46:27;15.60;99.90
21167;DHT22;10741;52.272;9.580;2022-09-09T05:48:53;15.60;99.90
21167;DHT22;10741;52.272;9.580;2022-09-09T05:51:21;15.60;99.90
21167;DHT22;10741;52.272;9.580;2022-09-09T05:53:48;15.60;99.90
21167;DHT22;10741;52.272;9.580;2022-09-09T05:56:19;15.60;99.90
21167;DHT22;10741;52.272;9.580;2022-09-09T05:58:46;15.70;99.90
21167;DHT22;10741;52.272;9.580;2022-09-09T06:01:17;15.70;99.90
21167;DHT22;10741;52.272;9.580;2022-09-09T06:03:44;15.70;99.90
21167;DHT22;10741;52.272;9.580;2022-09-09T06:06:16;15.80;99.90
21167;DHT22;10741;52.272;9.580;2022-09-09T06:08:43;15.80;99.90
21167;DHT22;10741;52.272;9.580;2022-09-09T06:11:11;15.80;99.90
21167;DHT22;10741;52.272;9.580;2022-09-09T06:13:38;15.80;99.90
21167;DHT22;10741;52.272;9.580;2022-09-09T06:16:13;15.80;99.90
21167;DHT22;10741;52.272;9.580;2022-09-09T06:18:39;15.70;99.90
21167;DHT22;10741;52.272;9.580;2022-09-09T06:21:09;15.60;99.90
21167;DHT22;10741;52.272;9.580;2022-09-09T06:23:36;15.50;99.90
21167;DHT22;10741;52.272;9.580;2022-09-09T06:26:09;15.40;99.90
21167;DHT22;10741;52.272;9.580;2022-09-09T06:28:35;15.30;99.90
21167;DHT22;10741;52.272;9.580;2022-09-09T06:31:03;15.20;99.90
21167;DHT22;10741;52.272;9.580;2022-09-09T06:33:40;15.20;99.90
21167;DHT22;10741;52.272;9.580;2022-09-09T06:36:20;15.10;99.90
21167;DHT22;10741;52.272;9.580;2022-09-09T06:38:47;15.10;99.90
21167;DHT22;10741;52.272;9.580;2022-09-09T06:41:14;15.10;99.90
21167;DHT22;10741;52.272;9.580;2022-09-09T06:43:40;15.10;99.90
21167;DHT22;10741;52.272;9.580;2022-09-09T06:46:30;15.20;99.90
21167;DHT22;10741;52.272;9.580;2022-09-09T06:48:58;15.20;99.90
21167;DHT22;10741;52.272;9.580;2022-09-09T06:51:28;15.30;99.90
21167;DHT22;10741;52.272;9.580;2022-09-09T06:53:56;15.40;99.90
21167;DHT22;10741;52.272;9.580;2022-09-09T06:56:25;15.40;99.90
21167;DHT22;10741;52.272;9.580;2022-09-09T06:58:53;15.60;99.90
21167;DHT22;10741;52.272;9.580;2022-09-09T07:01:22;15.80;99.90
21167;DHT22;10741;52.272;9.580;2022-09-09T07:03:50;15.90;99.90
21167;DHT22;10741;52.272;9.580;2022-09-09T07:06:18;16.10;99.90
21167;DHT22;10741;52.272;9.580;2022-09-09T07:08:49;16.20;99.90
21167;DHT22;10741;52.272;9.580;2022-09-09T07:11:16;16.30;99.90
21167;DHT22;10741;52.272;9.580;2022-09-09T07:13:41;16.40;99.90
21167;DHT22;10741;52.272;9.580;2022-09-09T07:16:13;16.60;99.90
21167;DHT22;10741;52.272;9.580;2022-09-09T07:18:40;16.70;99.90
21167;DHT22;10741;52.272;9.580;2022-09-09T07:21:06;16.90;99.90
21167;DHT22;10741;52.272;9.580;2022-09-09T07:23:34;17.10;99.90
21167;DHT22;10741;52.272;9.580;2022-09-09T07:26:02;17.50;99.90
21167;DHT22;10741;52.272;9.580;2022-09-09T07:28:28;17.90;99.90
21167;DHT22;10741;52.272;9.580;2022-09-09T07:30:58;18.40;99.90
21167;DHT22;10741;52.272;9.580;2022-09-09T07:33:25;18.80;99.90
21167;DHT22;10741;52.272;9.580;2022-09-09T07:35:51;18.70;99.90
21167;DHT22;10741;52.272;9.580;2022-09-09T07:38:18;18.50;99.90
21167;DHT22;10741;52.272;9.580;2022-09-09T07:40:45;18.30;99.90
21167;DHT22;10741;52.272;9.580;2022-09-09T07:43:11;18.10;99.90
21167;DHT22;10741;52.272;9.580;2022-09-09T07:45:37;17.90;99.90
21167;DHT22;10741;52.272;9.580;2022-09-09T07:48:03;17.90;99.90
21167;DHT22;10741;52.272;9.580;2022-09-09T07:50:30;17.80;99.90
21167;DHT22;10741;52.272;9.580;2022-09-09T07:52:55;17.80;99.90
21167;DHT22;10741;52.272;9.580;2022-09-09T07:55:22;17.90;99.90
21167;DHT22;10741;52.272;9.580;2022-09-09T07:57:51;18.20;99.90
21167;DHT22;10741;52.272;9.580;2022-09-09T08:00:17;18.40;99.90
21167;DHT22;10741;52.272;9.580;2022-09-09T08:02:44;18.40;99.90
21167;DHT22;10741;52.272;9.580;2022-09-09T08:05:09;18.40;99.90
21167;DHT22;10741;52.272;9.580;2022-09-09T08:07:35;18.30;99.90
21167;DHT22;10741;52.272;9.580;2022-09-09T08:10:02;18.20;99.90
21167;DHT22;10741;52.272;9.580;2022-09-09T08:12:28;18.20;99.90
21167;DHT22;10741;52.272;9.580;2022-09-09T08:14:54;18.10;99.90
21167;DHT22;10741;52.272;9.580;2022-09-09T08:17:20;18.00;99.90
21167;DHT22;10741;52.272;9.580;2022-09-09T08:19:45;18.10;99.90
21167;DHT22;10741;52.272;9.580;2022-09-09T08:22:11;18.00;99.90
21167;DHT22;10741;52.272;9.580;2022-09-09T08:24:37;18.00;99.90
21167;DHT22;10741;52.272;9.580;2022-09-09T08:27:03;18.00;99.90
21167;DHT22;10741;52.272;9.580;2022-09-09T08:29:28;18.00;99.90
21167;DHT22;10741;52.272;9.580;2022-09-09T08:31:56;18.10;99.90
21167;DHT22;10741;52.272;9.580;2022-09-09T08:34:24;18.10;99.90
21167;DHT22;10741;52.272;9.580;2022-09-09T08:36:52;18.20;99.90
21167;DHT22;10741;52.272;9.580;2022-09-09T08:39:19;18.20;99.90
21167;DHT22;10741;52.272;9.580;2022-09-09T08:42:12;18.20;99.90
21167;DHT22;10741;52.272;9.580;2022-09-09T08:48:06;18.50;99.90
21167;DHT22;10741;52.272;9.580;2022-09-09T08:50:37;18.60;99.90
21167;DHT22;10741;52.272;9.580;2022-09-09T08:53:15;18.50;99.90
21167;DHT22;10741;52.272;9.580;2022-09-09T08:55:54;18.60;99.90
21167;DHT22;10741;52.272;9.580;2022-09-09T08:58:27;18.60;99.90
21167;DHT22;10741;52.272;9.580;2022-09-09T09:03:43;18.80;99.90
21167;DHT22;10741;52.272;9.580;2022-09-09T09:11:51;18.90;99.90
21167;DHT22;10741;52.272;9.580;2022-09-09T09:14:25;19.00;99.90
21167;DHT22;10741;52.272;9.580;2022-09-09T09:16:59;18.90;99.90
21167;DHT22;10741;52.272;9.580;2022-09-09T09:19:27;18.90;99.90
21167;DHT22;10741;52.272;9.580;2022-09-09T09:22:20;19.00;99.90
21167;DHT22;10741;52.272;9.580;2022-09-09T09:30:18;19.10;99.90
21167;DHT22;10741;52.272;9.580;2022-09-09T09:32:57;19.30;99.90
21167;DHT22;10741;52.272;9.580;2022-09-09T09:35:23;19.50;99.90
21167;DHT22;10741;52.272;9.580;2022-09-09T09:37:49;19.70;99.90
21167;DHT22;10741;52.272;9.580;2022-09-09T09:40:21;19.90;99.90
21167;DHT22;10741;52.272;9.580;2022-09-09T09:42:51;20.10;99.90
21167;DHT22;10741;52.272;9.580;2022-09-09T09:48:08;20.50;99.90
21167;DHT22;10741;52.272;9.580;2022-09-09T09:50:34;20.60;99.90
21167;DHT22;10741;52.272;9.580;2022-09-09T09:53:03;20.50;99.90
21167;DHT22;10741;52.272;9.580;2022-09-09T09:55:30;20.50;99.90
21167;DHT22;10741;52.272;9.580;2022-09-09T09:58:06;20.50;99.90
21167;DHT22;10741;52.272;9.580;2022-09-09T10:00:51;20.40;99.90
21167;DHT22;10741;52.272;9.580;2022-09-09T10:03:32;20.40;99.90
21167;DHT22;10741;52.272;9.580;2022-09-09T10:05:58;20.10;99.90
21167;DHT22;10741;52.272;9.580;2022-09-09T10:08:25;20.10;99.90
21167;DHT22;10741;52.272;9.580;2022-09-09T10:19:19;19.70;99.90
21167;DHT22;10741;52.272;9.580;2022-09-09T10:27:51;19.90;99.90
21167;DHT22;10741;52.272;9.580;2022-09-09T10:30:23;20.10;99.90
21167;DHT22;10741;52.272;9.580;2022-09-09T10:43:56;19.70;99.90
21167;DHT22;10741;52.272;9.580;2022-09-09T10:59:58;17.50;99.90
21167;DHT22;10741;52.272;9.580;2022-09-09T11:02:31;17.40;99.90
21167;DHT22;10741;52.272;9.580;2022-09-09T11:05:05;17.10;99.90
21167;DHT22;10741;52.272;9.580;2022-09-09T11:07:55;16.90;99.90
21167;DHT22;10741;52.272;9.580;2022-09-09T11:13:29;16.90;99.90
21167;DHT22;10741;52.272;9.580;2022-09-09T11:18:39;16.60;99.90
21167;DHT22;10741;52.272;9.580;2022-09-09T11:21:12;16.50;99.90
21167;DHT22;10741;52.272;9.580;2022-09-09T11:23:43;16.40;99.90
21167;DHT22;10741;52.272;9.580;2022-09-09T11:26:18;16.20;99.90
21167;DHT22;10741;52.272;9.580;2022-09-09T11:29:06;16.20;99.90
21167;DHT22;10741;52.272;9.580;2022-09-09T11:42:28;15.90;99.90
21167;DHT22;10741;52.272;9.580;2022-09-09T11:44:54;15.90;99.90
21167;DHT22;10741;52.272;9.580;2022-09-09T11:47:27;15.70;99.90
21167;DHT22;10741;52.272;9.580;2022-09-09T11:52:43;15.80;99.90
21167;DHT22;10741;52.272;9.580;2022-09-09T11:58:00;15.80;99.90
21167;DHT22;10741;52.272;9.580;2022-09-09T12:00:44;16.00;99.90
21167;DHT22;10741;52.272;9.580;2022-09-09T12:03:38;16.40;99.90
21167;DHT22;10741;52.272;9.580;2022-09-09T12:06:31;17.00;99.90
21167;DHT22;10741;52.272;9.580;2022-09-09T12:19:40;20.20;99.90
21167;DHT22;10741;52.272;9.580;2022-09-09T12:22:37;21.00;99.90
21167;DHT22;10741;52.272;9.580;2022-09-09T12:25:32;21.70;99.90
21167;DHT22;10741;52.272;9.580;2022-09-09T12:28:25;22.00;99.90
21167;DHT22;10741;52.272;9.580;2022-09-09T12:33:40;22.50;99.90
21167;DHT22;10741;52.272;9.580;2022-09-09T12:36:16;22.70;99.90
21167;DHT22;10741;52.272;9.580;2022-09-09T12:38:43;23.00;99.90
21167;DHT22;10741;52.272;9.580;2022-09-09T12:41:21;22.90;99.90
21167;DHT22;10741;52.272;9.580;2022-09-09T12:43:47;22.30;99.90
21167;DHT22;10741;52.272;9.580;2022-09-09T12:46:23;21.50;99.90
21167;DHT22;10741;52.272;9.580;2022-09-09T12:48:53;20.90;99.90
21167;DHT22;10741;52.272;9.580;2022-09-09T12:51:28;20.30;99.90
21167;DHT22;10741;52.272;9.580;2022-09-09T12:53:55;20.00;99.90
21167;DHT22;10741;52.272;9.580;2022-09-09T12:56:26;19.50;99.90
21167;DHT22;10741;52.272;9.580;2022-09-09T12:58:54;19.20;99.90
21167;DHT22;10741;52.272;9.580;2022-09-09T13:01:31;18.90;99.90
21167;DHT22;10741;52.272;9.580;2022-09-09T13:03:59;18.50;99.90
21167;DHT22;10741;52.272;9.580;2022-09-09T13:06:27;18.50;99.90
21167;DHT22;10741;52.272;9.580;2022-09-09T13:08:58;18.50;99.90
21167;DHT22;10741;52.272;9.580;2022-09-09T13:11:35;18.50;99.90
21167;DHT22;10741;52.272;9.580;2022-09-09T13:14:03;18.40;99.90
21167;DHT22;10741;52.272;9.580;2022-09-09T13:16:32;18.30;99.90
21167;DHT22;10741;52.272;9.580;2022-09-09T13:19:08;18.20;99.90
21167;DHT22;10741;52.272;9.580;2022-09-09T13:21:36;18.00;99.90
21167;DHT22;10741;52.272;9.580;2022-09-09T13:24:05;18.10;99.90
21167;DHT22;10741;52.272;9.580;2022-09-09T13:26:33;18.00;99.90
21167;DHT22;10741;52.272;9.580;2022-09-09T13:29:17;17.90;99.90
21167;DHT22;10741;52.272;9.580;2022-09-09T13:31:44;18.00;99.90
21167;DHT22;10741;52.272;9.580;2022-09-09T13:34:28;18.10;99.90
21167;DHT22;10741;52.272;9.580;2022-09-09T13:37:00;18.20;99.90
21167;DHT22;10741;52.272;9.580;2022-09-09T13:39:33;18.10;99.90
21167;DHT22;10741;52.272;9.580;2022-09-09T13:42:00;18.20;99.90
21167;DHT22;10741;52.272;9.580;2022-09-09T13:44:38;18.30;99.90
21167;DHT22;10741;52.272;9.580;2022-09-09T13:47:15;18.50;99.90
21167;DHT22;10741;52.272;9.580;2022-09-09T13:49:43;18.50;99.90
21167;DHT22;10741;52.272;9.580;2022-09-09T13:52:14;18.40;99.90
21167;DHT22;10741;52.272;9.580;2022-09-09T13:54:41;18.70;99.90
21167;DHT22;10741;52.272;9.580;2022-09-09T13:57:20;18.60;99.90
21167;DHT22;10741;52.272;9.580;2022-09-09T13:59:47;18.50;99.90
21167;DHT22;10741;52.272;9.580;2022-09-09T14:02:14;18.50;99.90
21167;DHT22;10741;52.272;9.580;2022-09-09T14:04:40;18.50;99.90
21167;DHT22;10741;52.272;9.580;2022-09-09T14:07:12;18.60;99.90
21167;DHT22;10741;52.272;9.580;2022-09-09T14:09:38;18.70;99.90
21167;DHT22;10741;52.272;9.580;2022-09-09T14:12:04;18.80;99.90
21167;DHT22;10741;52.272;9.580;2022-09-09T14:14:30;19.30;99.90
21167;DHT22;10741;52.272;9.580;2022-09-09T14:16:56;20.30;99.90
21167;DHT22;10741;52.272;9.580;2022-09-09T14:19:22;21.50;99.90
21167;DHT22;10741;52.272;9.580;2022-09-09T14:21:48;22.90;99.90
21167;DHT22;10741;52.272;9.580;2022-09-09T14:24:14;24.00;99.90
21167;DHT22;10741;52.272;9.580;2022-09-09T14:26:39;24.90;99.90
21167;DHT22;10741;52.272;9.580;2022-09-09T14:29:06;25.60;99.90
21167;DHT22;10741;52.272;9.580;2022-09-09T14:31:32;25.80;99.90
21167;DHT22;10741;52.272;9.580;2022-09-09T14:33:58;26.00;99.90
21167;DHT22;10741;52.272;9.580;2022-09-09T14:36:24;26.20;99.90
21167;DHT22;10741;52.272;9.580;2022-09-09T14:38:50;26.20;99.90
21167;DHT22;10741;52.272;9.580;2022-09-09T14:41:17;25.90;99.90
21167;DHT22;10741;52.272;9.580;2022-09-09T14:43:44;25.60;99.90
21167;DHT22;10741;52.272;9.580;2022-09-09T14:46:15;25.00;99.90
21167;DHT22;10741;52.272;9.580;2022-09-09T14:48:41;24.00;99.90
21167;DHT22;10741;52.272;9.580;2022-09-09T14:51:14;23.70;99.90
21167;DHT22;10741;52.272;9.580;2022-09-09T14:53:42;23.30;99.90
21167;DHT22;10741;52.272;9.580;2022-09-09T14:56:10;22.70;99.90
21167;DHT22;10741;52.272;9.580;2022-09-09T14:58:37;22.00;99.90
21167;DHT22;10741;52.272;9.580;2022-09-09T15:01:04;21.50;99.90
21167;DHT22;10741;52.272;9.580;2022-09-09T15:03:30;21.40;99.90
21167;DHT22;10741;52.272;9.580;2022-09-09T15:05:56;21.00;99.90
21167;DHT22;10741;52.272;9.580;2022-09-09T15:08:24;20.90;99.90
21167;DHT22;10741;52.272;9.580;2022-09-09T15:10:50;20.90;99.90
21167;DHT22;10741;52.272;9.580;2022-09-09T15:13:16;20.90;99.90
21167;DHT22;10741;52.272;9.580;2022-09-09T15:15:44;20.80;99.90
21167;DHT22;10741;52.272;9.580;2022-09-09T15:18:10;20.80;99.90
21167;DHT22;10741;52.272;9.580;2022-09-09T15:20:36;20.80;99.90
21167;DHT22;10741;52.272;9.580;2022-09-09T15:23:03;20.70;99.90
21167;DHT22;10741;52.272;9.580;2022-09-09T15:25:28;20.70;99.90
21167;DHT22;10741;52.272;9.580;2022-09-09T15:27:54;20.70;99.90
21167;DHT22;10741;52.272;9.580;2022-09-09T15:30:21;20.70;99.90
21167;DHT22;10741;52.272;9.580;2022-09-09T15:32:47;20.80;99.90
21167;DHT22;10741;52.272;9.580;2022-09-09T15:35:13;20.80;99.90
21167;DHT22;10741;52.272;9.580;2022-09-09T15:37:38;20.80;99.90
21167;DHT22;10741;52.272;9.580;2022-09-09T15:40:04;21.00;99.90
21167;DHT22;10741;52.272;9.580;2022-09-09T15:42:30;21.10;99.90
21167;DHT22;10741;52.272;9.580;2022-09-09T15:44:56;21.10;99.90
21167;DHT22;10741;52.272;9.580;2022-09-09T15:47:22;21.20;99.90
21167;DHT22;10741;52.272;9.580;2022-09-09T15:49:48;21.10;99.90
21167;DHT22;10741;52.272;9.580;2022-09-09T15:52:13;21.20;99.90
21167;DHT22;10741;52.272;9.580;2022-09-09T15:54:39;21.10;99.90
21167;DHT22;10741;52.272;9.580;2022-09-09T15:57:07;21.10;99.90
21167;DHT22;10741;52.272;9.580;2022-09-09T15:59:34;21.00;99.90
21167;DHT22;10741;52.272;9.580;2022-09-09T16:02:00;20.90;99.90
21167;DHT22;10741;52.272;9.580;2022-09-09T16:04:27;20.90;99.90
21167;DHT22;10741;52.272;9.580;2022-09-09T16:06:59;20.90;99.90
21167;DHT22;10741;52.272;9.580;2022-09-09T16:09:26;20.80;99.90
21167;DHT22;10741;52.272;9.580;2022-09-09T16:11:55;20.70;99.90
21167;DHT22;10741;52.272;9.580;2022-09-09T16:14:21;20.60;99.90
21167;DHT22;10741;52.272;9.580;2022-09-09T16:16:47;20.50;99.90
21167;DHT22;10741;52.272;9.580;2022-09-09T16:19:13;20.40;99.90
21167;DHT22;10741;52.272;9.580;2022-09-09T16:21:48;20.20;99.90
21167;DHT22;10741;52.272;9.580;2022-09-09T16:24:16;20.10;99.90
21167;DHT22;10741;52.272;9.580;2022-09-09T16:26:46;19.90;99.90
21167;DHT22;10741;52.272;9.580;2022-09-09T16:29:13;19.70;99.90
21167;DHT22;10741;52.272;9.580;2022-09-09T16:31:40;19.70;99.90
21167;DHT22;10741;52.272;9.580;2022-09-09T16:34:07;19.60;99.90
21167;DHT22;10741;52.272;9.580;2022-09-09T16:36:35;19.50;99.90
21167;DHT22;10741;52.272;9.580;2022-09-09T16:39:16;19.40;99.90
21167;DHT22;10741;52.272;9.580;2022-09-09T16:41:43;19.30;99.90
21167;DHT22;10741;52.272;9.580;2022-09-09T16:44:11;19.20;99.90
21167;DHT22;10741;52.272;9.580;2022-09-09T16:46:40;19.10;99.90
21167;DHT22;10741;52.272;9.580;2022-09-09T16:49:09;19.10;99.90
21167;DHT22;10741;52.272;9.580;2022-09-09T16:51:38;19.00;99.90
21167;DHT22;10741;52.272;9.580;2022-09-09T16:54:06;19.00;99.90
21167;DHT22;10741;52.272;9.580;2022-09-09T16:56:33;18.90;99.90
21167;DHT22;10741;52.272;9.580;2022-09-09T16:59:02;18.90;99.90
21167;DHT22;10741;52.272;9.580;2022-09-09T17:01:31;18.90;99.90
21167;DHT22;10741;52.272;9.580;2022-09-09T17:04:00;18.80;99.90
21167;DHT22;10741;52.272;9.580;2022-09-09T17:06:30;18.80;99.90
21167;DHT22;10741;52.272;9.580;2022-09-09T17:09:01;18.70;99.90
21167;DHT22;10741;52.272;9.580;2022-09-09T17:11:29;18.70;99.90
21167;DHT22;10741;52.272;9.580;2022-09-09T17:13:56;18.70;99.90
21167;DHT22;10741;52.272;9.580;2022-09-09T17:16:27;18.60;99.90
21167;DHT22;10741;52.272;9.580;2022-09-09T17:18:54;18.40;99.90
21167;DHT22;10741;52.272;9.580;2022-09-09T17:21:23;18.30;99.90
21167;DHT22;10741;52.272;9.580;2022-09-09T17:23:51;18.20;99.90
21167;DHT22;10741;52.272;9.580;2022-09-09T17:26:20;18.10;99.90
21167;DHT22;10741;52.272;9.580;2022-09-09T17:28:47;17.90;99.90
21167;DHT22;10741;52.272;9.580;2022-09-09T17:31:17;17.80;99.90
21167;DHT22;10741;52.272;9.580;2022-09-09T17:33:47;17.70;99.90
21167;DHT22;10741;52.272;9.580;2022-09-09T17:36:17;17.60;99.90
21167;DHT22;10741;52.272;9.580;2022-09-09T17:38:43;17.60;99.90
21167;DHT22;10741;52.272;9.580;2022-09-09T17:41:24;17.60;99.90
21167;DHT22;10741;52.272;9.580;2022-09-09T17:43:51;17.60;99.90
21167;DHT22;10741;52.272;9.580;2022-09-09T17:46:22;17.50;99.90
21167;DHT22;10741;52.272;9.580;2022-09-09T17:48:50;17.50;99.90
21167;DHT22;10741;52.272;9.580;2022-09-09T17:51:21;17.40;99.90
21167;DHT22;10741;52.272;9.580;2022-09-09T17:53:52;17.40;99.90
21167;DHT22;10741;52.272;9.580;2022-09-09T17:56:21;17.40;99.90
21167;DHT22;10741;52.272;9.580;2022-09-09T17:58:48;17.30;99.90
21167;DHT22;10741;52.272;9.580;2022-09-09T18:01:18;17.30;99.90
21167;DHT22;10741;52.272;9.580;2022-09-09T18:03:45;17.20;99.90
21167;DHT22;10741;52.272;9.580;2022-09-09T18:06:20;17.20;99.90
21167;DHT22;10741;52.272;9.580;2022-09-09T18:08:51;17.20;99.90
21167;DHT22;10741;52.272;9.580;2022-09-09T18:11:19;17.20;99.90
21167;DHT22;10741;52.272;9.580;2022-09-09T18:13:49;17.10;99.90
21167;DHT22;10741;52.272;9.580;2022-09-09T18:16:16;17.10;99.90
21167;DHT22;10741;52.272;9.580;2022-09-09T18:18:44;17.10;99.90
21167;DHT22;10741;52.272;9.580;2022-09-09T18:21:10;17.10;99.90
21167;DHT22;10741;52.272;9.580;2022-09-09T18:23:41;17.10;99.90